Terminal Aerodrome Forecast
Issued by NWS New Orleans/Baton Rouge, LA

Home | Current Version | Previous Version | Text Only | Print | Product List | Glossary On
Versions: 1 2 3 4 5 6 7 8 9 10 11 12 13 14 15 16 17 18 19 20 21 22 23 24 25 26 27 28 29
056
FTUS44 KLIX 291127
TAFNEW
TAF
KNEW 291127Z 2912/3012 07011KT P6SM FEW025 BKN150
     FM291500 09011KT P6SM VCTS SCT040CB BKN250
     FM300000 10009KT P6SM SCT090 BKN250
     FM300900 04008KT P6SM BKN250=

USA.gov is the U.S. government's official web portal to all federal, state and local government web resources and services.